Time;durP1;ratioP1;P1;durP2;ratioP2;P2;SDS_P1;SDS_P2;PMS_P1;PMS_P2;Temp;Humidity;BMP_temperature;BMP_pressure;BME280_temperature;BME280_humidity;BME280_pressure;Samples;Min_cycle;Max_cycle;Signal;HPM_P1;HPM_P2
2022/12/14 00:00:39;;;;;;;17.95;10.68;;;;;;;-1.80;71.57;99621.03;6299572;22;20042;-71
2022/12/14 00:03:44;;;;;;;18.52;12.23;;;;;;;-1.83;71.73;99626.22;6301661;22;20073;-71
2022/12/14 00:06:47;;;;;;;20.20;12.43;;;;;;;-1.71;70.78;99613.19;6302269;22;20025;-71
2022/12/14 00:09:52;;;;;;;16.02;10.75;;;;;;;-1.45;70.38;99615.31;6302900;22;20026;-71
2022/12/14 00:12:56;;;;;;;16.60;11.18;;;;;;;-1.46;70.26;99612.78;6301925;22;20042;-71
2022/12/14 00:16:06;;;;;;;17.02;11.30;;;;;;;-1.57;70.39;99601.88;6302135;22;20069;-71
2022/12/14 00:19:10;;;;;;;16.30;11.00;;;;;;;-1.78;70.35;99601.38;6282831;22;20026;-72
2022/12/14 00:22:13;;;;;;;17.42;11.23;;;;;;;-2.08;71.48;99600.13;6301721;22;20037;-72
2022/12/14 00:25:24;;;;;;;16.88;10.88;;;;;;;-1.90;70.93;99597.28;6301554;22;20034;-72
2022/12/14 00:28:27;;;;;;;15.25;10.20;;;;;;;-1.65;70.38;99596.88;6300988;22;20460;-71
2022/12/14 00:31:31;;;;;;;16.20;10.77;;;;;;;-1.71;70.46;99592.69;6301626;22;20521;-72
2022/12/14 00:34:37;;;;;;;15.57;10.20;;;;;;;-1.81;70.81;99590.34;6301637;22;20076;-72
2022/12/14 00:37:44;;;;;;;19.70;11.90;;;;;;;-1.62;70.42;99596.00;6301989;22;20022;-72
2022/12/14 00:40:48;;;;;;;14.82;10.13;;;;;;;-1.70;69.77;99586.69;6302005;22;20080;-72
2022/12/14 00:43:52;;;;;;;15.43;9.35;;;;;;;-1.57;69.93;99574.50;6302696;22;20026;-72
2022/12/14 00:46:55;;;;;;;16.08;10.90;;;;;;;-1.68;70.46;99573.88;6301139;22;20026;-72
2022/12/14 00:50:00;;;;;;;17.30;11.38;;;;;;;-1.62;70.53;99563.50;6301298;22;20424;-71
2022/12/14 00:53:04;;;;;;;18.60;11.23;;;;;;;-1.54;70.13;99563.34;6301395;22;20354;-72
2022/12/14 00:56:17;;;;;;;14.98;9.90;;;;;;;-1.55;69.59;99569.38;6298278;22;20030;-71
2022/12/14 00:59:20;;;;;;;18.55;11.77;;;;;;;-1.57;69.82;99568.53;6300583;22;20042;-72
2022/12/14 01:02:24;;;;;;;15.15;10.65;;;;;;;-1.48;69.75;99568.38;6301475;22;20072;-72
2022/12/14 01:05:27;;;;;;;16.83;12.05;;;;;;;-1.43;69.11;99569.97;6302381;22;20022;-72
2022/12/14 01:11:53;;;;;;;17.73;9.95;;;;;;;-1.62;69.39;99560.09;6300902;22;20370;-72
2022/12/14 01:14:57;;;;;;;;;;;;;;;-1.59;69.58;99554.91;6300960;22;20098;-71
2022/12/14 01:18:01;;;;;;;16.13;10.25;;;;;;;-1.66;69.43;99549.91;6301828;22;19918;-71
2022/12/14 01:21:12;;;;;;;15.40;10.13;;;;;;;-1.69;69.27;99544.84;6301896;22;20088;-71
2022/12/14 01:24:16;;;;;;;16.13;10.00;;;;;;;-1.57;68.48;99540.34;6301218;22;20056;-71
2022/12/14 01:27:19;;;;;;;14.38;9.27;;;;;;;-1.54;68.17;99533.44;6301314;22;20053;-72
2022/12/14 01:30:22;;;;;;;17.13;10.65;;;;;;;-1.55;68.17;99520.66;6300701;22;20025;-72
2022/12/14 01:33:26;;;;;;;14.93;9.57;;;;;;;-1.52;68.20;99512.91;6300872;22;20103;-72
2022/12/14 01:36:30;;;;;;;;;;;;;;;-1.66;68.29;99519.16;6301296;22;20402;-72
2022/12/14 01:39:35;;;;;;;15.05;10.30;;;;;;;-1.80;68.87;99521.09;6300476;22;19913;-71
2022/12/14 01:42:38;;;;;;;15.77;9.88;;;;;;;-1.78;68.21;99524.50;6301493;22;20396;-71
2022/12/14 01:45:42;;;;;;;16.15;9.98;;;;;;;-1.55;68.17;99529.19;6301297;22;20053;-71
2022/12/14 01:48:47;;;;;;;17.67;10.98;;;;;;;-1.62;68.75;99521.66;6300489;22;20515;-72
2022/12/14 01:52:26;;;;;;;14.60;9.65;;;;;;;-1.93;69.41;99519.63;6300761;22;20075;-71
2022/12/14 01:55:40;;;;;;;18.48;10.13;;;;;;;-2.01;70.22;99516.34;6300676;22;20054;-71
2022/12/14 01:58:44;;;;;;;15.68;10.68;;;;;;;-2.17;70.53;99505.53;6300531;22;20022;-72
2022/12/14 02:01:47;;;;;;;13.82;9.35;;;;;;;-2.03;69.96;99507.88;6300465;22;20073;-72
2022/12/14 02:04:57;;;;;;;16.10;9.98;;;;;;;-2.03;70.22;99489.94;6300296;22;20354;-71
2022/12/14 02:08:17;;;;;;;15.93;10.00;;;;;;;-1.86;69.72;99485.34;6294979;22;20551;-71
2022/12/14 02:11:43;;;;;;;14.07;9.07;;;;;;;-1.89;70.27;99481.09;6300211;22;20025;-71
2022/12/14 02:14:47;;;;;;;14.52;9.43;;;;;;;-2.13;70.66;99479.84;6300401;22;20022;-71
2022/12/14 02:17:51;;;;;;;16.77;10.07;;;;;;;-2.04;70.66;99481.41;6299983;22;20131;-72
2022/12/14 02:21:12;;;;;;;16.67;9.73;;;;;;;-2.12;70.93;99476.41;6299537;22;20084;-72
2022/12/14 02:24:34;;;;;;;14.82;9.07;;;;;;;-2.16;71.38;99481.63;6300447;22;20531;-72
2022/12/14 02:27:47;;;;;;;13.60;8.82;;;;;;;-2.23;71.37;99480.88;6301183;22;20086;-72
2022/12/14 02:31:13;;;;;;;13.00;8.75;;;;;;;-2.15;71.67;99475.63;6301555;22;20023;-72
2022/12/14 02:34:31;;;;;;;14.60;9.00;;;;;;;-2.06;71.19;99478.03;6300338;22;20519;-72
2022/12/14 02:38:02;;;;;;;13.10;8.23;;;;;;;-1.90;70.48;99461.50;6300630;22;20034;-72
2022/12/14 02:41:15;;;;;;;14.63;9.23;;;;;;;-2.04;71.00;99450.69;6300256;22;20094;-71
2022/12/14 02:44:38;;;;;;;13.73;9.13;;;;;;;-1.93;71.21;99453.03;6300380;22;20072;-71
2022/12/14 02:47:53;;;;;;;13.07;9.18;;;;;;;-2.04;71.56;99442.13;6301314;22;20352;-71
2022/12/14 02:51:15;;;;;;;14.25;9.00;;;;;;;-2.02;71.56;99437.81;6299594;22;20076;-71
2022/12/14 02:54:51;;;;;;;13.43;8.70;;;;;;;-1.96;70.92;99437.72;6300484;22;20023;-71
2022/12/14 02:58:21;;;;;;;14.15;9.10;;;;;;;-1.80;70.71;99431.41;6288508;22;20493;-72
2022/12/14 03:01:28;;;;;;;13.75;8.48;;;;;;;-1.74;70.29;99426.19;6300593;22;20073;-71
2022/12/14 03:04:44;;;;;;;13.60;9.18;;;;;;;-1.69;70.70;99416.69;6299641;22;20054;-72
2022/12/14 03:08:00;;;;;;;13.63;8.35;;;;;;;-1.71;70.29;99413.31;6299954;22;20192;-72
2022/12/14 03:11:05;;;;;;;12.77;8.00;;;;;;;-1.94;70.79;99407.78;6302057;22;20480;-71
2022/12/14 03:14:34;;;;;;;12.77;8.75;;;;;;;-1.85;70.54;99410.19;6302008;22;20042;-72
2022/12/14 03:17:39;;;;;;;13.15;9.55;;;;;;;-1.67;70.02;99386.72;6302206;22;20077;-71
2022/12/14 03:20:47;;;;;;;13.00;8.82;;;;;;;-1.63;68.83;99384.94;6302774;22;20107;-71
2022/12/14 03:23:54;;;;;;;13.48;8.52;;;;;;;-1.65;69.68;99382.41;6302415;22;20391;-71
2022/12/14 03:27:10;;;;;;;13.30;8.55;;;;;;;-1.81;70.71;99381.06;6302838;22;20399;-71
2022/12/14 03:30:16;;;;;;;15.95;9.45;;;;;;;-1.70;69.46;99385.94;6302299;22;20022;-71
2022/12/14 03:33:22;;;;;;;14.13;8.85;;;;;;;-1.74;68.10;99380.03;6301934;22;20026;-71
2022/12/14 03:36:31;;;;;;;15.65;9.30;;;;;;;-1.72;68.18;99380.88;6302889;22;20025;-71
2022/12/14 03:39:37;;;;;;;11.60;8.20;;;;;;;-1.75;68.01;99383.50;6302938;22;20038;-71
2022/12/14 03:43:10;;;;;;;13.48;8.25;;;;;;;-1.68;68.24;99369.66;6302469;22;20098;-71
2022/12/14 03:46:22;;;;;;;13.57;9.10;;;;;;;-1.56;66.96;99375.41;6301719;22;20021;-71
2022/12/14 03:50:01;;;;;;;14.07;9.15;;;;;;;-1.54;66.99;99371.94;6283368;22;20026;-71
2022/12/14 03:53:10;;;;;;;15.95;10.38;;;;;;;-1.45;67.20;99370.91;6283494;22;20049;-71
2022/12/14 03:56:22;;;;;;;16.67;10.27;;;;;;;-1.46;67.09;99369.22;6302161;22;20332;-71
2022/12/14 03:59:59;;;;;;;14.48;9.48;;;;;;;-1.47;67.09;99370.94;6302749;22;20026;-71
2022/12/14 04:03:14;;;;;;;15.15;9.65;;;;;;;-1.41;66.35;99364.81;6301941;22;20021;-71
2022/12/14 04:06:28;;;;;;;16.10;10.43;;;;;;;-1.73;67.25;99368.91;6302413;22;20109;-71
2022/12/14 04:10:00;;;;;;;13.57;8.20;;;;;;;-1.62;67.49;99375.56;6302243;22;20098;-71
2022/12/14 04:20:49;;;;;;;15.30;9.63;;;;;;;-1.51;66.78;99382.13;6301331;22;20070;-71
2022/12/14 04:27:47;;;;;;;15.02;9.50;;;;;;;-1.77;67.70;99392.91;6301033;22;20100;-71
2022/12/14 04:30:50;;;;;;;15.63;9.20;;;;;;;-1.48;66.86;99382.06;6267264;22;20764;-71
2022/12/14 04:33:57;;;;;;;14.48;10.27;;;;;;;-1.49;67.14;99384.66;6300780;22;20026;-71
2022/12/14 04:37:10;;;;;;;15.02;9.88;;;;;;;-1.31;66.10;99379.16;6299469;22;20034;-71
2022/12/14 04:44:31;;;;;;;14.50;9.23;;;;;;;-1.44;66.78;99381.09;6300822;22;20026;-71
2022/12/14 04:47:43;;;;;;;14.63;8.50;;;;;;;-1.44;66.71;99385.38;6282780;22;20362;-72
2022/12/14 04:51:02;;;;;;;12.63;8.40;;;;;;;-1.42;66.48;99378.53;6301971;22;20054;-71
2022/12/14 04:54:37;;;;;;;15.60;8.85;;;;;;;-1.48;66.29;99381.22;6299150;22;20487;-72
2022/12/14 04:58:13;;;;;;;12.52;8.20;;;;;;;-1.32;66.42;99364.63;6299852;22;20025;-71
2022/12/14 05:01:28;;;;;;;14.20;8.65;;;;;;;-1.46;66.38;99362.38;6299663;22;20050;-71
2022/12/14 05:05:02;;;;;;;14.75;8.80;;;;;;;-1.44;66.94;99358.03;6300823;22;20450;-71
2022/12/14 05:08:09;;;;;;;13.70;8.70;;;;;;;-1.49;66.95;99354.75;6302735;22;20046;-71
2022/12/14 05:11:40;;;;;;;13.35;8.85;;;;;;;-1.30;66.17;99352.59;6301189;22;20030;-71
2022/12/14 05:15:13;;;;;;;13.82;8.98;;;;;;;-1.61;66.73;99346.47;6300890;22;20496;-72
2022/12/14 05:18:17;;;;;;;16.00;9.85;;;;;;;-1.47;66.60;99342.75;6280504;22;20343;-72
2022/12/14 05:24:44;;;;;;;13.38;8.93;;;;;;;-1.45;66.41;99340.13;6281726;22;20429;-73
2022/12/14 05:27:48;;;;;;;;;;;;;;;-1.36;66.99;99323.69;6300395;22;20049;-72
2022/12/14 06:07:41;;;;;;;13.35;7.80;;;;;;;-1.31;66.35;99245.78;6302063;22;20080;-74
2022/12/14 06:10:44;;;;;;;15.60;9.82;;;;;;;-1.22;65.38;99232.72;6282949;22;20030;-74
2022/12/14 06:13:54;;;;;;;17.35;9.90;;;;;;;-1.39;65.95;99232.31;6302189;22;20099;-75
2022/12/14 06:17:04;;;;;;;13.95;8.13;;;;;;;-1.17;65.74;99224.94;6283607;22;20018;-75
2022/12/14 06:20:09;;;;;;;12.38;7.85;;;;;;;-1.17;65.87;99220.63;6265984;22;20025;-74
2022/12/14 06:23:13;;;;;;;13.77;8.63;;;;;;;-1.29;65.44;99226.06;6283063;22;20038;-71
2022/12/14 06:26:17;;;;;;;15.00;7.60;;;;;;;-1.02;64.96;99219.41;6302367;22;20022;-70
2022/12/14 06:29:21;;;;;;;13.52;8.55;;;;;;;-1.15;64.72;99218.00;6302878;22;20026;-70
2022/12/14 06:32:26;;;;;;;13.43;9.07;;;;;;;-0.97;64.33;99216.72;6303246;22;20037;-71
2022/12/14 06:35:46;;;;;;;15.27;7.97;;;;;;;-1.18;64.77;99213.81;6300346;22;20374;-71
2022/12/14 06:38:58;;;;;;;14.77;8.43;;;;;;;-1.31;65.12;99222.72;6299744;22;20030;-70
2022/12/14 06:42:05;;;;;;;12.77;8.63;;;;;;;-1.13;64.69;99215.44;6298388;22;20026;-70
2022/12/14 06:45:14;;;;;;;11.88;8.13;;;;;;;-1.18;65.23;99210.44;6300585;22;20022;-71
2022/12/14 06:48:21;;;;;;;13.00;7.88;;;;;;;-1.20;64.80;99210.44;6302110;22;20022;-71
2022/12/14 06:51:25;;;;;;;15.80;8.75;;;;;;;-1.21;64.45;99208.78;6301609;22;20080;-70
2022/12/14 06:54:29;;;;;;;;;;;;;;;-1.17;64.61;99218.06;6302748;22;20104;-71
2022/12/14 06:57:32;;;;;;;13.43;8.17;;;;;;;-1.10;64.50;99221.31;6303836;22;19913;-70
2022/12/14 07:00:40;;;;;;;13.93;8.35;;;;;;;-1.05;64.81;99214.34;6303035;22;20280;-70
2022/12/14 07:03:52;;;;;;;11.32;6.90;;;;;;;-0.96;64.64;99213.25;6303059;22;20022;-70
2022/12/14 07:06:55;;;;;;;14.95;8.48;;;;;;;-1.06;65.41;99204.13;6302909;22;20088;-70
2022/12/14 07:09:59;;;;;;;11.82;7.97;;;;;;;-1.02;66.57;99211.72;6302477;22;20519;-70
2022/12/14 07:13:03;;;;;;;12.98;8.27;;;;;;;-0.93;67.16;99208.03;6302098;22;20026;-70
2022/12/14 07:16:20;;;;;;;13.00;8.85;;;;;;;-0.94;67.35;99206.38;6300531;22;20053;-70
2022/12/14 07:19:23;;;;;;;14.80;9.32;;;;;;;-1.13;68.47;99213.69;6300211;22;20076;-70
2022/12/14 07:22:26;;;;;;;13.50;8.88;;;;;;;-1.22;69.12;99204.50;6302642;22;20026;-71
2022/12/14 07:25:33;;;;;;;13.75;8.40;;;;;;;-1.15;69.41;99212.03;6304751;22;20026;-71
2022/12/14 07:28:38;;;;;;;11.32;8.13;;;;;;;-1.37;70.03;99217.75;6305037;22;20056;-71
2022/12/14 07:31:41;;;;;;;14.70;8.60;;;;;;;-1.11;70.12;99218.81;6304949;22;20022;-70
2022/12/14 07:34:44;;;;;;;17.20;9.27;;;;;;;-1.31;70.67;99232.09;6284093;22;20072;-70
2022/12/14 07:37:48;;;;;;;18.80;9.90;;;;;;;-1.32;70.56;99231.28;6304019;22;20018;-71
2022/12/14 07:40:52;;;;;;;13.52;9.27;;;;;;;-1.32;71.13;99241.53;6302012;22;20072;-71
2022/12/14 07:43:59;;;;;;;15.23;8.68;;;;;;;-1.49;72.05;99233.41;6302670;22;20026;-70
2022/12/14 07:47:04;;;;;;;12.82;8.50;;;;;;;-1.35;72.17;99235.63;6302118;22;20084;-70
2022/12/14 07:50:32;;;;;;;14.32;9.25;;;;;;;-1.27;71.00;99239.69;6302548;22;20080;-70
2022/12/14 07:54:14;;;;;;;14.32;9.27;;;;;;;-1.33;71.62;99254.41;6277953;22;20466;-71
2022/12/14 07:58:08;;;;;;;15.38;10.38;;;;;;;-1.32;72.55;99246.66;6301615;22;20381;-70
2022/12/14 08:01:41;;;;;;;13.60;9.18;;;;;;;-1.29;73.65;99251.72;6287113;22;20050;-70
2022/12/14 08:11:03;;;;;;;25.65;10.65;;;;;;;-2.41;78.90;99258.47;6028600;23;20098;-70
2022/12/14 08:14:42;;;;;;;20.08;10.00;;;;;;;-2.40;79.05;99252.47;6139917;23;20290;-69
2022/12/14 08:17:52;;;;;;;15.77;9.80;;;;;;;-2.55;80.32;99257.88;6211028;22;20104;-69
2022/12/14 08:20:55;;;;;;;17.25;10.40;;;;;;;-2.33;79.48;99243.78;6303173;22;20026;-69
2022/12/14 08:24:01;;;;;;;20.65;10.48;;;;;;;-2.63;80.60;99251.19;6303452;22;20054;-69
2022/12/14 08:27:05;;;;;;;17.45;11.57;;;;;;;-2.45;80.97;99244.91;6300895;22;20026;-70
2022/12/14 08:30:12;;;;;;;19.55;10.02;;;;;;;-2.54;80.42;99236.56;6301650;22;20026;-69
2022/12/14 08:33:16;;;;;;;20.40;10.93;;;;;;;-2.39;81.28;99237.09;6302214;22;20025;-70
2022/12/14 08:36:23;;;;;;;17.08;10.38;;;;;;;-1.85;78.97;99230.84;6302238;22;20022;-70
2022/12/14 08:39:27;;;;;;;18.88;10.35;;;;;;;-1.60;77.63;99237.94;6302224;22;20026;-70
2022/12/14 08:42:52;;;;;;;16.85;10.60;;;;;;;-1.58;77.10;99236.19;6303836;22;20026;-70
2022/12/14 08:46:27;;;;;;;13.95;9.50;;;;;;;-1.44;76.55;99236.69;6302168;22;20023;-73
2022/12/14 08:49:30;;;;;;;12.93;8.43;;;;;;;-1.37;76.31;99238.25;6303691;22;20038;-73
2022/12/14 08:52:33;;;;;;;16.00;10.05;;;;;;;-1.60;76.71;99241.34;6303985;22;20085;-73
2022/12/14 08:56:04;;;;;;;15.23;9.77;;;;;;;-1.88;77.41;99241.97;6303363;22;20030;-73
2022/12/14 09:03:52;;;;;;;16.25;9.43;;;;;;;-1.36;75.67;99252.75;6296870;22;20072;-69
2022/12/14 09:06:56;;;;;;;13.10;8.93;;;;;;;-1.34;76.45;99261.25;6298532;22;20075;-70
2022/12/14 09:09:59;;;;;;;15.73;9.65;;;;;;;-1.29;76.66;99250.88;6299262;22;20022;-69
2022/12/14 09:13:02;;;;;;;14.25;9.25;;;;;;;-1.34;75.95;99253.56;6299105;22;20026;-70
2022/12/14 09:16:11;;;;;;;13.68;9.25;;;;;;;-1.30;76.04;99249.19;6300050;22;20072;-70
2022/12/14 09:19:17;;;;;;;12.65;9.27;;;;;;;-1.29;75.83;99248.31;6301266;22;20035;-70
2022/12/14 09:22:23;;;;;;;17.70;11.00;;;;;;;-1.28;76.52;99252.53;6301845;22;20115;-70
2022/12/14 09:25:36;;;;;;;16.35;9.85;;;;;;;-1.27;76.10;99259.38;6301835;22;20513;-70
2022/12/14 09:29:24;;;;;;;14.73;9.52;;;;;;;-1.22;76.02;99252.41;6300764;22;20022;-70
2022/12/14 09:33:18;;;;;;;13.85;9.07;;;;;;;-1.07;76.07;99264.00;6299834;22;20437;-69
2022/12/14 09:36:31;;;;;;;15.40;10.10;;;;;;;-0.96;75.61;99259.44;6300824;22;20022;-69
2022/12/14 09:39:38;;;;;;;13.85;9.38;;;;;;;-1.21;76.36;99265.19;6300759;22;20025;-70
2022/12/14 09:42:57;;;;;;;14.30;10.20;;;;;;;-0.98;74.43;99256.09;6299501;22;20025;-70
2022/12/14 09:46:41;;;;;;;22.48;10.63;;;;;;;-0.95;74.73;99261.13;6302218;22;20026;-69
2022/12/14 09:50:19;;;;;;;16.70;10.02;;;;;;;-0.94;74.87;99252.56;6302207;22;20022;-70
2022/12/14 09:53:24;;;;;;;17.00;10.90;;;;;;;-1.03;75.19;99253.63;6283657;22;20084;-70
2022/12/14 09:56:48;;;;;;;18.33;10.30;;;;;;;-1.11;74.73;99254.72;6301232;22;20018;-70
2022/12/14 09:59:57;;;;;;;;;;;;;;;-1.05;74.75;99254.56;6302842;22;20018;-70
2022/12/14 10:03:54;;;;;;;15.57;9.85;;;;;;;-0.97;74.90;99257.75;6303493;22;19960;-70
2022/12/14 10:08:04;;;;;;;16.02;10.02;;;;;;;-1.00;74.94;99258.69;6283536;22;20042;-69
2022/12/14 10:11:44;;;;;;;16.77;9.48;;;;;;;-0.97;75.25;99256.03;6302269;22;20025;-69
2022/12/14 10:15:25;;;;;;;15.82;9.90;;;;;;;-1.01;74.94;99264.69;6302765;22;20104;-70
2022/12/14 10:19:29;;;;;;;12.60;9.32;;;;;;;-1.00;75.01;99257.84;6285644;22;20025;-70
2022/12/14 10:22:49;;;;;;;16.17;10.77;;;;;;;-0.91;74.24;99252.47;6239623;22;20141;-69
2022/12/14 10:26:01;;;;;;;16.45;10.75;;;;;;;-0.84;74.10;99248.03;6304387;22;20022;-69
2022/12/14 10:29:21;;;;;;;15.07;10.55;;;;;;;-0.86;74.38;99242.94;6305237;22;20027;-70
2022/12/14 10:33:02;;;;;;;16.65;11.43;;;;;;;-0.75;74.05;99238.34;6304574;22;20026;-70
2022/12/14 10:36:25;;;;;;;17.30;11.05;;;;;;;-0.74;73.48;99234.88;6304314;22;20096;-70
2022/12/14 10:39:40;;;;;;;16.05;10.23;;;;;;;-0.70;73.63;99235.69;6303829;22;20022;-70
2022/12/14 10:42:52;;;;;;;14.05;9.23;;;;;;;-0.91;74.11;99226.81;6305255;22;20441;-70
2022/12/14 10:46:04;;;;;;;15.60;10.32;;;;;;;-0.92;74.15;99230.28;6304943;22;20351;-70
2022/12/14 10:49:13;;;;;;;15.60;9.57;;;;;;;-0.77;74.55;99222.13;6304965;22;20614;-70
2022/12/14 10:56:01;;;;;;;15.32;11.38;;;;;;;-0.93;74.80;99228.56;6285113;22;20025;-70
2022/12/14 10:59:16;;;;;;;16.33;10.32;;;;;;;-0.60;73.56;99221.69;6304541;22;20084;-70
2022/12/14 11:02:27;;;;;;;14.45;9.80;;;;;;;-0.54;73.53;99225.84;6304364;22;20037;-70
2022/12/14 11:05:38;;;;;;;14.73;9.80;;;;;;;-0.86;74.32;99224.97;6304248;22;20029;-70
2022/12/14 11:08:47;;;;;;;15.13;10.32;;;;;;;-0.64;74.33;99219.25;6303453;22;20506;-73
2022/12/14 11:12:00;;;;;;;14.13;9.68;;;;;;;-0.58;74.11;99213.94;6303958;22;20061;-74
2022/12/14 11:19:01;;;;;;;12.88;8.40;;;;;;;-0.35;72.57;99219.28;6304616;22;20457;-70
2022/12/14 11:22:11;;;;;;;13.60;9.10;;;;;;;-0.80;73.41;99214.56;6302283;22;20025;-69
2022/12/14 11:25:40;;;;;;;16.23;9.70;;;;;;;-0.78;73.51;99211.94;6304101;22;20026;-69
2022/12/14 11:29:26;;;;;;;17.92;8.95;;;;;;;-0.52;72.83;99208.63;6303865;22;20074;-69
2022/12/14 11:33:12;;;;;;;14.35;9.50;;;;;;;-0.41;72.62;99196.34;6277228;22;20481;-69
2022/12/14 11:37:14;;;;;;;11.48;8.35;;;;;;;-0.34;71.88;99197.84;6304264;22;20026;-69
2022/12/14 11:41:19;;;;;;;14.05;9.40;;;;;;;-0.30;72.17;99190.88;6304046;22;20036;-69
2022/12/14 11:44:48;;;;;;;15.63;8.65;;;;;;;-0.37;72.59;99197.94;6266722;22;20453;-68
2022/12/14 11:48:19;;;;;;;12.60;8.65;;;;;;;-0.12;71.51;99192.09;6304187;22;20026;-73
2022/12/14 11:51:23;;;;;;;15.15;10.43;;;;;;;-0.30;73.27;99193.47;6303077;22;20021;-75
2022/12/14 11:54:28;;;;;;;19.95;9.55;;;;;;;-0.24;72.38;99199.25;6303780;22;20026;-75
2022/12/14 11:57:50;;;;;;;15.93;9.82;;;;;;;-0.02;70.70;99198.63;6303583;22;20077;-72
2022/12/14 12:01:11;;;;;;;18.52;9.57;;;;;;;-0.04;69.24;99195.25;6304329;22;20025;-71
2022/12/14 12:04:16;;;;;;;20.92;10.18;;;;;;;-0.21;69.81;99202.63;6304074;22;20091;-70
2022/12/14 12:07:37;;;;;;;17.77;10.77;;;;;;;-0.19;68.78;99198.25;6303717;22;20026;-71
2022/12/14 12:10:45;;;;;;;14.45;9.23;;;;;;;0.07;69.04;99203.47;6285294;22;20034;-70
2022/12/14 12:14:02;;;;;;;14.52;10.15;;;;;;;-0.15;69.75;99203.28;6303293;22;20510;-70
2022/12/14 12:17:24;;;;;;;16.60;10.50;;;;;;;-0.27;69.60;99207.03;6303802;22;20053;-70
2022/12/14 12:20:40;;;;;;;16.67;9.60;;;;;;;-0.28;69.97;99212.25;6302884;22;20042;-71
2022/12/14 12:24:05;;;;;;;14.43;10.02;;;;;;;-0.19;69.83;99209.41;6302306;22;20025;-71
2022/12/14 12:27:13;;;;;;;12.93;8.25;;;;;;;-0.13;70.14;99205.78;6303844;22;20661;-70
2022/12/14 12:30:23;;;;;;;16.48;9.80;;;;;;;-0.34;70.06;99208.13;6304291;22;20096;-69
2022/12/14 12:33:36;;;;;;;13.55;9.35;;;;;;;-0.25;70.10;99197.59;6303750;22;20022;-70
2022/12/14 12:36:39;;;;;;;13.25;8.95;;;;;;;-0.27;70.20;99198.50;6304092;22;20117;-69
2022/12/14 12:39:49;;;;;;;17.85;9.38;;;;;;;-0.37;70.33;99203.06;6303659;22;20083;-69
2022/12/14 12:42:59;;;;;;;16.20;9.95;;;;;;;-0.13;70.21;99205.78;6303936;22;20026;-69
2022/12/14 12:46:33;;;;;;;16.00;9.80;;;;;;;-0.07;69.66;99200.47;6303888;22;20181;-69
2022/12/14 12:49:36;;;;;;;14.75;9.57;;;;;;;-0.12;69.56;99197.22;6302478;22;20112;-69
2022/12/14 12:53:04;;;;;;;16.40;9.07;;;;;;;-0.03;69.86;99202.94;6302966;22;20080;-70
2022/12/14 12:56:16;;;;;;;19.60;8.55;;;;;;;0.07;68.85;99198.34;6303457;22;20026;-69
2022/12/14 12:59:25;;;;;;;14.27;9.10;;;;;;;-0.01;69.27;99197.72;6303480;22;20053;-70
2022/12/14 13:02:33;;;;;;;17.30;9.07;;;;;;;-0.03;68.79;99202.94;6301471;22;20029;-68
2022/12/14 13:05:39;;;;;;;13.88;8.43;;;;;;;-0.01;68.28;99201.13;6302062;22;20026;-69
2022/12/14 13:08:47;;;;;;;13.30;8.45;;;;;;;-0.01;68.78;99208.00;6303296;22;20026;-69
2022/12/14 13:12:36;;;;;;;14.55;9.60;;;;;;;0.09;68.78;99211.97;6303518;22;20026;-68
2022/12/14 13:16:23;;;;;;;14.70;9.27;;;;;;;-0.19;68.52;99216.25;6302402;22;20022;-69
2022/12/14 13:19:39;;;;;;;17.10;10.20;;;;;;;0.13;68.32;99208.44;6292187;22;20190;-70
2022/12/14 13:23:03;;;;;;;15.38;9.70;;;;;;;0.12;67.61;99216.19;6303501;22;20044;-68
2022/12/14 13:30:42;;;;;;;15.15;9.35;;;;;;;0.20;67.02;99212.50;6303192;22;20102;-69
2022/12/14 13:34:04;;;;;;;12.43;8.73;;;;;;;-0.10;67.87;99221.13;6303417;22;20026;-69
2022/12/14 13:38:03;;;;;;;13.70;8.15;;;;;;;0.07;67.67;99218.91;6302710;22;20022;-69
2022/12/14 13:42:02;;;;;;;14.45;10.10;;;;;;;0.18;67.57;99216.84;6303031;22;20297;-69
2022/12/14 13:45:40;;;;;;;15.55;10.23;;;;;;;0.31;66.25;99224.16;6300913;22;20026;-70
2022/12/14 13:49:24;;;;;;;13.10;9.10;;;;;;;0.05;66.73;99230.13;6287161;22;20113;-70
2022/12/14 13:52:39;;;;;;;15.05;9.57;;;;;;;0.07;66.82;99224.03;6301735;22;20080;-70
2022/12/14 13:55:54;;;;;;;15.55;9.98;;;;;;;0.08;67.02;99225.72;6301530;22;20145;-70
2022/12/14 14:13:38;;;;;;;14.70;8.95;;;;;;;-0.01;67.19;99226.00;6211589;22;20028;-70
2022/12/14 14:17:32;;;;;;;13.68;8.85;;;;;;;0.14;66.32;99240.97;6300764;22;20098;-70
2022/12/14 14:20:54;;;;;;;15.05;8.73;;;;;;;0.08;67.15;99236.00;6301695;22;20080;-69
2022/12/14 14:24:11;;;;;;;12.98;8.32;;;;;;;0.06;66.57;99236.94;6301205;22;20026;-69
2022/12/14 14:27:29;;;;;;;14.77;8.85;;;;;;;0.05;65.52;99238.66;6301577;22;20115;-70
2022/12/14 14:31:46;;;;;;;13.93;8.88;;;;;;;-0.06;66.34;99228.72;6299493;22;20028;-70
2022/12/14 14:34:55;;;;;;;13.13;9.07;;;;;;;-0.11;67.44;99238.28;6301890;22;20023;-70
2022/12/14 14:38:32;;;;;;;15.00;8.70;;;;;;;-0.03;69.01;99238.06;6302119;22;20018;-70
2022/12/14 14:41:42;;;;;;;13.40;8.02;;;;;;;-0.05;69.27;99242.41;6302288;22;20068;-70
2022/12/14 18:43:03;;;;;;;17.73;9.50;;;;;;;-0.29;75.08;99467.41;6247055;23;20081;-70
2022/12/14 18:46:38;;;;;;;15.25;9.48;;;;;;;-0.21;75.27;99465.50;6246824;23;20103;-70
2022/12/14 18:49:42;;;;;;;15.27;9.35;;;;;;;-0.47;76.04;99463.59;6243113;23;20027;-71
2022/12/14 18:53:37;;;;;;;13.50;9.35;;;;;;;-0.27;75.32;99463.91;6245478;23;20034;-71
2022/12/14 20:45:16;;;;;;;14.55;9.93;;;;;;;-0.35;77.67;99568.59;6307916;22;20022;-71
2022/12/14 20:48:29;;;;;;;18.90;11.32;;;;;;;-0.14;77.22;99568.97;6307912;22;20022;-71
2022/12/14 20:51:35;;;;;;;14.63;9.38;;;;;;;-0.29;77.84;99571.03;6307743;22;20026;-72
2022/12/14 20:54:47;;;;;;;14.38;9.93;;;;;;;-0.27;77.71;99564.09;6307620;22;20026;-71
2022/12/14 20:58:21;;;;;;;;;;;;;;;-0.16;77.39;99570.72;6308294;22;20026;-71
2022/12/14 21:01:44;;;;;;;14.85;10.70;;;;;;;-0.30;77.96;99573.63;6307567;22;19952;-71
2022/12/14 21:04:48;;;;;;;15.80;10.27;;;;;;;-0.33;78.11;99571.13;6307555;22;20026;-71
2022/12/14 21:07:56;;;;;;;14.95;10.13;;;;;;;-0.19;77.93;99571.66;6306201;22;20023;-71
2022/12/14 21:38:55;;;;;;;14.77;10.48;;;;;;;-0.24;78.83;99576.03;6307227;22;20022;-71
2022/12/14 21:45:24;;;;;;;19.10;12.65;;;;;;;-0.05;77.80;99576.44;6307286;22;19914;-71
2022/12/14 21:48:27;;;;;;;18.77;11.95;;;;;;;-0.15;78.36;99577.56;6288502;22;20022;-71
2022/12/14 21:51:56;;;;;;;18.27;13.35;;;;;;;-0.28;79.05;99580.41;6307529;22;20627;-71
2022/12/14 22:00:38;;;;;;;17.75;10.88;;;;;;;-0.16;78.69;99586.13;6307110;22;20025;-71
2022/12/14 22:04:26;;;;;;;18.42;12.93;;;;;;;-0.18;78.69;99583.59;6274856;22;20026;-71
2022/12/14 22:07:33;;;;;;;18.42;13.13;;;;;;;-0.06;78.35;99588.47;6306984;22;20076;-71
2022/12/14 22:10:36;;;;;;;19.60;13.07;;;;;;;-0.23;78.72;99595.69;6307388;22;20366;-71
2022/12/14 22:13:46;;;;;;;18.45;12.07;;;;;;;-0.34;79.22;99595.97;6307189;22;20084;-71
2022/12/14 22:16:50;;;;;;;17.17;12.18;;;;;;;-0.40;79.75;99605.53;6309472;22;20385;-71
2022/12/14 22:19:54;;;;;;;20.58;12.40;;;;;;;-0.25;79.35;99595.75;6314070;22;20037;-71
2022/12/14 22:22:59;;;;;;;16.98;11.27;;;;;;;-0.35;79.58;99595.97;6321445;22;20022;-71
2022/12/14 22:26:03;;;;;;;17.50;12.98;;;;;;;-0.27;79.30;99602.63;6340418;22;20061;-71
2022/12/14 22:29:07;;;;;;;18.05;12.63;;;;;;;-0.12;78.98;99604.03;6340452;22;20514;-71
2022/12/14 22:32:11;;;;;;;23.90;13.63;;;;;;;-0.01;78.79;99601.19;6340314;22;20080;-71
2022/12/14 22:35:15;;;;;;;22.73;14.40;;;;;;;0.01;78.35;99596.88;6340441;22;20449;-71
2022/12/14 22:38:18;;;;;;;27.85;18.00;;;;;;;-0.03;78.69;99592.69;6340638;22;20018;-71
2022/12/14 22:41:57;;;;;;;22.30;14.68;;;;;;;-0.18;79.10;99603.31;6340387;22;20390;-71
2022/12/14 22:50:58;;;;;;;18.90;12.95;;;;;;;-0.19;78.79;99599.91;6339699;22;20076;-71
2022/12/14 22:54:42;;;;;;;26.65;15.90;;;;;;;-0.05;77.97;99599.59;6240178;22;20052;-71
2022/12/14 22:57:53;;;;;;;19.27;13.80;;;;;;;-0.12;77.74;99598.03;6321374;22;20063;-71
2022/12/14 23:02:22;;;;;;;;;;;;;;;;;;;;;
